sensor_id;sensor_type;location;lat;lon;timestamp;pressure;altitude;pressure_sealevel;temperature;humidity
28935;BME280;16044;52.726;-2.108;2022-11-12T00:01:04;101634.41;;;11.39;92.18
28935;BME280;16044;52.726;-2.108;2022-11-12T00:03:31;101623.00;;;11.36;92.41
28935;BME280;16044;52.726;-2.108;2022-11-12T00:05:58;101629.03;;;11.29;92.60
28935;BME280;16044;52.726;-2.108;2022-11-12T00:08:25;101627.66;;;11.25;92.64
28935;BME280;16044;52.726;-2.108;2022-11-12T00:10:52;101627.78;;;11.24;92.50
28935;BME280;16044;52.726;-2.108;2022-11-12T00:13:19;101630.97;;;11.19;92.64
28935;BME280;16044;52.726;-2.108;2022-11-12T00:15:46;101632.25;;;11.15;92.54
28935;BME280;16044;52.726;-2.108;2022-11-12T00:18:14;101628.16;;;11.11;92.14
28935;BME280;16044;52.726;-2.108;2022-11-12T00:20:40;101627.59;;;11.07;92.01
28935;BME280;16044;52.726;-2.108;2022-11-12T00:23:08;101629.94;;;11.02;92.47
28935;BME280;16044;52.726;-2.108;2022-11-12T00:25:35;101619.53;;;10.98;92.56
28935;BME280;16044;52.726;-2.108;2022-11-12T00:28:05;101619.28;;;10.91;93.56
28935;BME280;16044;52.726;-2.108;2022-11-12T00:30:36;101625.84;;;10.88;93.54
28935;BME280;16044;52.726;-2.108;2022-11-12T00:33:05;101634.00;;;10.88;93.74
28935;BME280;16044;52.726;-2.108;2022-11-12T00:35:33;101625.28;;;10.85;93.94
28935;BME280;16044;52.726;-2.108;2022-11-12T00:38:00;101626.31;;;10.84;93.69
28935;BME280;16044;52.726;-2.108;2022-11-12T00:40:27;101629.03;;;10.84;93.62
28935;BME280;16044;52.726;-2.108;2022-11-12T00:42:55;101629.31;;;10.81;93.81
28935;BME280;16044;52.726;-2.108;2022-11-12T00:45:22;101634.03;;;10.79;93.92
28935;BME280;16044;52.726;-2.108;2022-11-12T00:47:53;101617.06;;;10.77;93.64
28935;BME280;16044;52.726;-2.108;2022-11-12T00:50:22;101629.94;;;10.75;94.07
28935;BME280;16044;52.726;-2.108;2022-11-12T00:52:53;101618.66;;;10.69;94.15
28935;BME280;16044;52.726;-2.108;2022-11-12T00:55:21;101626.81;;;10.69;94.36
28935;BME280;16044;52.726;-2.108;2022-11-12T00:57:48;101626.81;;;10.69;94.82
28935;BME280;16044;52.726;-2.108;2022-11-12T01:00:17;101621.69;;;10.66;95.44
28935;BME280;16044;52.726;-2.108;2022-11-12T01:02:46;101623.38;;;10.67;95.73
28935;BME280;16044;52.726;-2.108;2022-11-12T01:05:17;101636.94;;;10.67;95.23
28935;BME280;16044;52.726;-2.108;2022-11-12T01:07:45;101638.81;;;10.67;95.36
28935;BME280;16044;52.726;-2.108;2022-11-12T01:10:20;101634.38;;;10.66;95.57
28935;BME280;16044;52.726;-2.108;2022-11-12T01:12:46;101632.53;;;10.66;95.45
28935;BME280;16044;52.726;-2.108;2022-11-12T01:15:13;101637.97;;;10.66;95.14
28935;BME280;16044;52.726;-2.108;2022-11-12T01:17:40;101628.25;;;10.64;95.17
28935;BME280;16044;52.726;-2.108;2022-11-12T01:20:07;101630.88;;;10.56;95.83
28935;BME280;16044;52.726;-2.108;2022-11-12T01:22:34;101630.59;;;10.59;95.35
28935;BME280;16044;52.726;-2.108;2022-11-12T01:25:01;101629.84;;;10.57;95.46
28935;BME280;16044;52.726;-2.108;2022-11-12T01:27:28;101624.59;;;10.55;95.20
28935;BME280;16044;52.726;-2.108;2022-11-12T01:29:55;101634.75;;;10.53;95.12
28935;BME280;16044;52.726;-2.108;2022-11-12T01:32:22;101628.63;;;10.51;95.02
28935;BME280;16044;52.726;-2.108;2022-11-12T01:34:49;101623.47;;;10.48;95.19
28935;BME280;16044;52.726;-2.108;2022-11-12T01:37:17;101633.16;;;10.50;95.25
28935;BME280;16044;52.726;-2.108;2022-11-12T01:39:44;101625.63;;;10.44;95.15
28935;BME280;16044;52.726;-2.108;2022-11-12T01:42:10;101634.91;;;10.42;95.24
28935;BME280;16044;52.726;-2.108;2022-11-12T01:44:43;101635.19;;;10.39;95.16
28935;BME280;16044;52.726;-2.108;2022-11-12T01:50:03;101629.38;;;10.33;95.11
28935;BME280;16044;52.726;-2.108;2022-11-12T01:52:44;101627.66;;;10.32;95.13
28935;BME280;16044;52.726;-2.108;2022-11-12T01:55:17;101625.22;;;10.29;94.93
28935;BME280;16044;52.726;-2.108;2022-11-12T01:57:50;101627.22;;;10.27;94.49
28935;BME280;16044;52.726;-2.108;2022-11-12T02:00:21;101626.09;;;10.20;94.64
28935;BME280;16044;52.726;-2.108;2022-11-12T02:02:53;101621.81;;;10.18;94.60
28935;BME280;16044;52.726;-2.108;2022-11-12T02:05:24;101617.53;;;10.15;94.56
28935;BME280;16044;52.726;-2.108;2022-11-12T02:07:53;101616.13;;;10.11;94.64
28935;BME280;16044;52.726;-2.108;2022-11-12T02:10:21;101619.28;;;10.06;94.59
28935;BME280;16044;52.726;-2.108;2022-11-12T02:12:50;101623.16;;;10.04;94.66
28935;BME280;16044;52.726;-2.108;2022-11-12T02:15:37;101611.56;;;10.02;95.02
28935;BME280;16044;52.726;-2.108;2022-11-12T02:18:06;101609.03;;;10.00;95.43
28935;BME280;16044;52.726;-2.108;2022-11-12T02:20:34;101603.63;;;10.00;96.00
28935;BME280;16044;52.726;-2.108;2022-11-12T02:23:04;101594.19;;;10.04;96.39
28935;BME280;16044;52.726;-2.108;2022-11-12T02:25:33;101598.47;;;10.07;96.59
28935;BME280;16044;52.726;-2.108;2022-11-12T02:28:04;101600.75;;;10.11;96.94
28935;BME280;16044;52.726;-2.108;2022-11-12T02:30:36;101596.75;;;10.15;96.91
28935;BME280;16044;52.726;-2.108;2022-11-12T02:33:08;101597.88;;;10.23;97.27
28935;BME280;16044;52.726;-2.108;2022-11-12T02:35:34;101598.41;;;10.26;97.14
28935;BME280;16044;52.726;-2.108;2022-11-12T02:38:02;101596.25;;;10.30;96.87
28935;BME280;16044;52.726;-2.108;2022-11-12T02:40:30;101600.56;;;10.32;96.82
28935;BME280;16044;52.726;-2.108;2022-11-12T02:42:57;101606.84;;;10.33;96.75
28935;BME280;16044;52.726;-2.108;2022-11-12T02:45:25;101607.25;;;10.38;96.66
28935;BME280;16044;52.726;-2.108;2022-11-12T02:47:52;101602.69;;;10.39;96.84
28935;BME280;16044;52.726;-2.108;2022-11-12T02:50:19;101595.81;;;10.44;96.86
28935;BME280;16044;52.726;-2.108;2022-11-12T02:52:46;101599.09;;;10.48;96.82
28935;BME280;16044;52.726;-2.108;2022-11-12T02:55:13;101597.78;;;10.52;96.66
28935;BME280;16044;52.726;-2.108;2022-11-12T02:57:40;101593.63;;;10.58;96.54
28935;BME280;16044;52.726;-2.108;2022-11-12T03:00:11;101598.91;;;10.59;96.55
28935;BME280;16044;52.726;-2.108;2022-11-12T03:02:39;101598.28;;;10.65;96.43
28935;BME280;16044;52.726;-2.108;2022-11-12T03:05:11;101596.00;;;10.70;96.22
28935;BME280;16044;52.726;-2.108;2022-11-12T03:07:39;101600.25;;;10.73;96.57
28935;BME280;16044;52.726;-2.108;2022-11-12T03:10:06;101605.22;;;10.78;96.29
28935;BME280;16044;52.726;-2.108;2022-11-12T03:12:33;101600.50;;;10.80;96.31
28935;BME280;16044;52.726;-2.108;2022-11-12T03:15:00;101595.63;;;10.83;96.11
28935;BME280;16044;52.726;-2.108;2022-11-12T03:17:27;101599.91;;;10.86;95.75
28935;BME280;16044;52.726;-2.108;2022-11-12T03:19:53;101599.59;;;10.89;95.54
28935;BME280;16044;52.726;-2.108;2022-11-12T03:22:20;101600.13;;;10.92;95.09
28935;BME280;16044;52.726;-2.108;2022-11-12T03:24:47;101592.16;;;10.91;95.02
28935;BME280;16044;52.726;-2.108;2022-11-12T03:27:14;101597.28;;;10.94;94.67
28935;BME280;16044;52.726;-2.108;2022-11-12T03:29:41;101592.53;;;10.96;94.08
28935;BME280;16044;52.726;-2.108;2022-11-12T03:32:08;101593.25;;;10.98;93.98
28935;BME280;16044;52.726;-2.108;2022-11-12T03:34:35;101588.97;;;10.96;93.42
28935;BME280;16044;52.726;-2.108;2022-11-12T03:37:01;101592.53;;;10.96;93.53
28935;BME280;16044;52.726;-2.108;2022-11-12T03:39:29;101584.13;;;10.99;92.96
28935;BME280;16044;52.726;-2.108;2022-11-12T03:41:56;101580.69;;;10.97;92.67
28935;BME280;16044;52.726;-2.108;2022-11-12T03:44:23;101574.44;;;10.97;92.69
28935;BME280;16044;52.726;-2.108;2022-11-12T03:46:50;101570.53;;;10.99;92.31
28935;BME280;16044;52.726;-2.108;2022-11-12T03:49:16;101575.13;;;10.99;91.99
28935;BME280;16044;52.726;-2.108;2022-11-12T03:51:43;101567.84;;;10.99;91.69
28935;BME280;16044;52.726;-2.108;2022-11-12T03:54:10;101564.28;;;10.99;91.13
28935;BME280;16044;52.726;-2.108;2022-11-12T03:56:37;101562.41;;;10.99;90.80
28935;BME280;16044;52.726;-2.108;2022-11-12T03:59:04;101553.56;;;10.97;90.32
28935;BME280;16044;52.726;-2.108;2022-11-12T04:01:31;101552.19;;;10.93;90.38
28935;BME280;16044;52.726;-2.108;2022-11-12T04:03:58;101550.78;;;10.89;90.37
28935;BME280;16044;52.726;-2.108;2022-11-12T04:06:25;101560.06;;;10.86;90.25
28935;BME280;16044;52.726;-2.108;2022-11-12T04:09:11;101554.63;;;10.86;89.95
28935;BME280;16044;52.726;-2.108;2022-11-12T04:11:37;101548.38;;;10.86;89.92
28935;BME280;16044;52.726;-2.108;2022-11-12T04:14:04;101553.09;;;10.84;89.96
28935;BME280;16044;52.726;-2.108;2022-11-12T04:16:31;101551.13;;;10.76;89.51
28935;BME280;16044;52.726;-2.108;2022-11-12T04:19:16;101551.97;;;10.77;89.62
28935;BME280;16044;52.726;-2.108;2022-11-12T04:22:07;101549.56;;;10.73;89.71
28935;BME280;16044;52.726;-2.108;2022-11-12T04:24:40;101549.41;;;10.75;89.54
28935;BME280;16044;52.726;-2.108;2022-11-12T04:27:31;101556.00;;;10.72;89.68
28935;BME280;16044;52.726;-2.108;2022-11-12T04:29:59;101554.28;;;10.71;89.68
28935;BME280;16044;52.726;-2.108;2022-11-12T04:32:52;101563.31;;;10.72;89.18
28935;BME280;16044;52.726;-2.108;2022-11-12T04:35:25;101551.19;;;10.66;89.02
28935;BME280;16044;52.726;-2.108;2022-11-12T04:37:52;101553.44;;;10.71;89.30
28935;BME280;16044;52.726;-2.108;2022-11-12T04:40:25;101554.28;;;10.71;88.82
28935;BME280;16044;52.726;-2.108;2022-11-12T04:43:13;101564.91;;;10.65;89.10
28935;BME280;16044;52.726;-2.108;2022-11-12T04:46:00;101563.59;;;10.69;88.96
28935;BME280;16044;52.726;-2.108;2022-11-12T04:48:28;101564.59;;;10.68;88.87
28935;BME280;16044;52.726;-2.108;2022-11-12T04:50:58;101575.75;;;10.65;88.97
28935;BME280;16044;52.726;-2.108;2022-11-12T04:53:27;101572.56;;;10.69;88.76
28935;BME280;16044;52.726;-2.108;2022-11-12T04:55:56;101573.44;;;10.70;88.33
28935;BME280;16044;52.726;-2.108;2022-11-12T04:58:24;101564.59;;;10.68;88.61
28935;BME280;16044;52.726;-2.108;2022-11-12T05:00:51;101572.56;;;10.69;88.65
28935;BME280;16044;52.726;-2.108;2022-11-12T05:03:18;101569.16;;;10.67;88.59
28935;BME280;16044;52.726;-2.108;2022-11-12T05:05:45;101564.59;;;10.68;88.63
28935;BME280;16044;52.726;-2.108;2022-11-12T05:08:12;101568.16;;;10.68;88.65
28935;BME280;16044;52.726;-2.108;2022-11-12T05:10:39;101573.59;;;10.68;88.55
28935;BME280;16044;52.726;-2.108;2022-11-12T05:13:06;101569.00;;;10.69;88.67
28935;BME280;16044;52.726;-2.108;2022-11-12T05:15:33;101567.16;;;10.69;88.10
28935;BME280;16044;52.726;-2.108;2022-11-12T05:17:59;101571.72;;;10.69;88.42
28935;BME280;16044;52.726;-2.108;2022-11-12T05:20:26;101577.84;;;10.71;88.21
28935;BME280;16044;52.726;-2.108;2022-11-12T05:22:53;101583.41;;;10.69;88.43
28935;BME280;16044;52.726;-2.108;2022-11-12T05:25:34;101592.09;;;10.73;88.04
28935;BME280;16044;52.726;-2.108;2022-11-12T05:28:01;101592.25;;;10.71;88.13
28935;BME280;16044;52.726;-2.108;2022-11-12T05:30:28;101581.41;;;10.71;88.12
28935;BME280;16044;52.726;-2.108;2022-11-12T05:32:55;101583.81;;;10.75;88.21
28935;BME280;16044;52.726;-2.108;2022-11-12T05:35:22;101578.69;;;10.71;87.91
28935;BME280;16044;52.726;-2.108;2022-11-12T05:37:48;101563.13;;;10.73;88.11
28935;BME280;16044;52.726;-2.108;2022-11-12T05:40:15;101572.97;;;10.75;87.98
28935;BME280;16044;52.726;-2.108;2022-11-12T05:42:43;101560.59;;;10.72;87.69
28935;BME280;16044;52.726;-2.108;2022-11-12T05:45:10;101556.00;;;10.72;87.89
28935;BME280;16044;52.726;-2.108;2022-11-12T05:47:37;101559.72;;;10.71;87.82
28935;BME280;16044;52.726;-2.108;2022-11-12T05:50:04;101565.31;;;10.70;87.70
28935;BME280;16044;52.726;-2.108;2022-11-12T05:52:31;101568.88;;;10.70;87.50
28935;BME280;16044;52.726;-2.108;2022-11-12T05:54:58;101560.88;;;10.69;87.68
28935;BME280;16044;52.726;-2.108;2022-11-12T05:57:26;101559.72;;;10.71;87.58
28935;BME280;16044;52.726;-2.108;2022-11-12T05:59:53;101567.00;;;10.71;87.35
28935;BME280;16044;52.726;-2.108;2022-11-12T06:02:20;101569.16;;;10.67;87.47
28935;BME280;16044;52.726;-2.108;2022-11-12T06:04:47;101569.16;;;10.67;87.81
28935;BME280;16044;52.726;-2.108;2022-11-12T06:07:14;101572.19;;;10.64;87.88
28935;BME280;16044;52.726;-2.108;2022-11-12T06:09:41;101562.91;;;10.67;87.77
28935;BME280;16044;52.726;-2.108;2022-11-12T06:12:08;101564.59;;;10.68;87.76
28935;BME280;16044;52.726;-2.108;2022-11-12T06:14:34;101562.75;;;10.68;87.56
28935;BME280;16044;52.726;-2.108;2022-11-12T06:17:01;101571.88;;;10.67;87.80
28935;BME280;16044;52.726;-2.108;2022-11-12T06:19:28;101581.88;;;10.67;87.47
28935;BME280;16044;52.726;-2.108;2022-11-12T06:21:55;101568.31;;;10.67;87.73
28935;BME280;16044;52.726;-2.108;2022-11-12T06:24:22;101563.75;;;10.67;87.78
28935;BME280;16044;52.726;-2.108;2022-11-12T06:26:49;101578.31;;;10.66;87.70
28935;BME280;16044;52.726;-2.108;2022-11-12T06:29:16;101574.91;;;10.64;87.82
28935;BME280;16044;52.726;-2.108;2022-11-12T06:31:43;101565.75;;;10.65;87.55
28935;BME280;16044;52.726;-2.108;2022-11-12T06:34:10;101561.34;;;10.64;87.69
28935;BME280;16044;52.726;-2.108;2022-11-12T06:36:38;101573.03;;;10.65;87.41
28935;BME280;16044;52.726;-2.108;2022-11-12T06:39:05;101582.31;;;10.62;87.75
28935;BME280;16044;52.726;-2.108;2022-11-12T06:41:32;101576.88;;;10.62;87.54
28935;BME280;16044;52.726;-2.108;2022-11-12T06:43:58;101581.03;;;10.66;87.55
28935;BME280;16044;52.726;-2.108;2022-11-12T06:46:25;101574.91;;;10.64;87.37
28935;BME280;16044;52.726;-2.108;2022-11-12T06:48:52;101576.31;;;10.68;87.01
28935;BME280;16044;52.726;-2.108;2022-11-12T06:51:19;101571.88;;;10.67;87.12
28935;BME280;16044;52.726;-2.108;2022-11-12T06:53:47;101575.44;;;10.68;86.97
28935;BME280;16044;52.726;-2.108;2022-11-12T06:56:14;101571.16;;;10.65;87.14
28935;BME280;16044;52.726;-2.108;2022-11-12T06:58:42;101568.16;;;10.68;86.68
28935;BME280;16044;52.726;-2.108;2022-11-12T07:01:14;101570.88;;;10.68;86.30
28935;BME280;16044;52.726;-2.108;2022-11-12T07:03:43;101563.59;;;10.69;86.08
28935;BME280;16044;52.726;-2.108;2022-11-12T07:06:14;101565.59;;;10.67;85.48
28935;BME280;16044;52.726;-2.108;2022-11-12T07:08:46;101563.44;;;10.70;85.69
28935;BME280;16044;52.726;-2.108;2022-11-12T07:11:16;101563.44;;;10.70;85.46
28935;BME280;16044;52.726;-2.108;2022-11-12T07:13:44;101566.44;;;10.67;85.53
28935;BME280;16044;52.726;-2.108;2022-11-12T07:16:13;101570.88;;;10.68;85.23
28935;BME280;16044;52.726;-2.108;2022-11-12T07:18:45;101566.16;;;10.70;84.75
28935;BME280;16044;52.726;-2.108;2022-11-12T07:21:15;101570.00;;;10.68;84.82
28935;BME280;16044;52.726;-2.108;2022-11-12T07:23:46;101562.91;;;10.67;84.64
28935;BME280;16044;52.726;-2.108;2022-11-12T07:26:25;101559.78;;;10.62;84.56
28935;BME280;16044;52.726;-2.108;2022-11-12T07:28:55;101560.03;;;10.68;84.80
28935;BME280;16044;52.726;-2.108;2022-11-12T07:31:24;101555.59;;;10.67;84.69
28935;BME280;16044;52.726;-2.108;2022-11-12T07:33:51;101565.47;;;10.68;84.45
28935;BME280;16044;52.726;-2.108;2022-11-12T07:36:20;101567.47;;;10.66;84.80
28935;BME280;16044;52.726;-2.108;2022-11-12T07:38:50;101561.16;;;10.66;84.93
28935;BME280;16044;52.726;-2.108;2022-11-12T07:41:20;101570.19;;;10.66;84.67
28935;BME280;16044;52.726;-2.108;2022-11-12T07:43:50;101562.03;;;10.66;84.60
28935;BME280;16044;52.726;-2.108;2022-11-12T07:46:23;101563.19;;;10.64;84.76
28935;BME280;16044;52.726;-2.108;2022-11-12T07:48:52;101555.19;;;10.62;84.79
28935;BME280;16044;52.726;-2.108;2022-11-12T07:51:25;101562.47;;;10.62;84.81
28935;BME280;16044;52.726;-2.108;2022-11-12T07:53:55;101565.34;;;10.60;84.79
28935;BME280;16044;52.726;-2.108;2022-11-12T07:56:26;101557.91;;;10.62;84.69
28935;BME280;16044;52.726;-2.108;2022-11-12T07:58:53;101573.47;;;10.60;84.44
28935;BME280;16044;52.726;-2.108;2022-11-12T08:01:38;101567.41;;;10.48;84.70
28935;BME280;16044;52.726;-2.108;2022-11-12T08:04:07;101575.28;;;10.42;84.81
28935;BME280;16044;52.726;-2.108;2022-11-12T08:06:35;101578.56;;;10.36;84.66
28935;BME280;16044;52.726;-2.108;2022-11-12T08:09:04;101577.16;;;10.31;84.67
28935;BME280;16044;52.726;-2.108;2022-11-12T08:11:33;101582.13;;;10.26;84.85
28935;BME280;16044;52.726;-2.108;2022-11-12T08:14:01;101589.56;;;10.24;84.99
28935;BME280;16044;52.726;-2.108;2022-11-12T08:16:28;101590.88;;;10.20;85.59
28935;BME280;16044;52.726;-2.108;2022-11-12T08:18:55;101593.28;;;10.23;86.00
28935;BME280;16044;52.726;-2.108;2022-11-12T08:21:23;101591.28;;;10.25;86.36
28935;BME280;16044;52.726;-2.108;2022-11-12T08:23:50;101590.72;;;10.31;86.25
28935;BME280;16044;52.726;-2.108;2022-11-12T08:26:18;101590.56;;;10.33;86.23
28935;BME280;16044;52.726;-2.108;2022-11-12T08:28:46;101594.13;;;10.33;86.30
28935;BME280;16044;52.726;-2.108;2022-11-12T08:31:20;101600.44;;;10.34;86.75
28935;BME280;16044;52.726;-2.108;2022-11-12T08:33:48;101602.41;;;10.42;86.73
28935;BME280;16044;52.726;-2.108;2022-11-12T08:36:16;101597.81;;;10.42;87.00
28935;BME280;16044;52.726;-2.108;2022-11-12T08:38:44;101595.81;;;10.44;87.11
28935;BME280;16044;52.726;-2.108;2022-11-12T08:41:13;101596.66;;;10.45;87.21
28935;BME280;16044;52.726;-2.108;2022-11-12T08:43:41;101590.94;;;10.48;87.14
28935;BME280;16044;52.726;-2.108;2022-11-12T08:46:08;101584.81;;;10.46;87.19
28935;BME280;16044;52.726;-2.108;2022-11-12T08:48:35;101578.56;;;10.45;87.61
28935;BME280;16044;52.726;-2.108;2022-11-12T08:51:03;101577.25;;;10.49;87.57
28935;BME280;16044;52.726;-2.108;2022-11-12T08:53:30;101577.09;;;10.51;87.62
28935;BME280;16044;52.726;-2.108;2022-11-12T08:55:58;101579.66;;;10.52;87.92
28935;BME280;16044;52.726;-2.108;2022-11-12T08:58:25;101577.50;;;10.56;87.91
28935;BME280;16044;52.726;-2.108;2022-11-12T09:00:53;101572.06;;;10.56;88.32
28935;BME280;16044;52.726;-2.108;2022-11-12T09:03:22;101571.47;;;10.62;88.05
28935;BME280;16044;52.726;-2.108;2022-11-12T09:05:51;101574.91;;;10.64;88.09
28935;BME280;16044;52.726;-2.108;2022-11-12T09:08:21;101570.00;;;10.68;88.11
28935;BME280;16044;52.726;-2.108;2022-11-12T09:10:50;101572.88;;;10.66;88.25
28935;BME280;16044;52.726;-2.108;2022-11-12T09:13:18;101572.88;;;10.66;88.47
28935;BME280;16044;52.726;-2.108;2022-11-12T09:15:46;101575.41;;;10.78;88.46
28935;BME280;16044;52.726;-2.108;2022-11-12T09:18:15;101568.81;;;10.80;88.51
28935;BME280;16044;52.726;-2.108;2022-11-12T09:20:44;101569.22;;;10.85;88.25
28935;BME280;16044;52.726;-2.108;2022-11-12T09:23:15;101569.38;;;10.84;88.67
28935;BME280;16044;52.726;-2.108;2022-11-12T09:25:43;101574.72;;;10.93;88.18
28935;BME280;16044;52.726;-2.108;2022-11-12T09:28:11;101574.97;;;11.00;87.97
28935;BME280;16044;52.726;-2.108;2022-11-12T09:30:47;101580.09;;;11.03;87.31
28935;BME280;16044;52.726;-2.108;2022-11-12T09:33:24;101583.81;;;11.02;87.65
28935;BME280;16044;52.726;-2.108;2022-11-12T09:35:53;101591.78;;;11.04;88.02
28935;BME280;16044;52.726;-2.108;2022-11-12T09:38:21;101599.47;;;11.08;87.71
28935;BME280;16044;52.726;-2.108;2022-11-12T09:46:30;101604.44;;;11.13;87.13
28935;BME280;16044;52.726;-2.108;2022-11-12T09:49:27;101607.31;;;11.11;86.74
28935;BME280;16044;52.726;-2.108;2022-11-12T09:52:02;101612.75;;;11.11;87.15
28935;BME280;16044;52.726;-2.108;2022-11-12T09:54:34;101604.28;;;11.15;86.81
28935;BME280;16044;52.726;-2.108;2022-11-12T09:57:02;101611.44;;;11.16;86.73
28935;BME280;16044;52.726;-2.108;2022-11-12T09:59:32;101623.13;;;11.16;86.87
28935;BME280;16044;52.726;-2.108;2022-11-12T10:04:54;101620.41;;;11.16;86.94
28935;BME280;16044;52.726;-2.108;2022-11-12T10:07:34;101616.38;;;11.20;86.69
28935;BME280;16044;52.726;-2.108;2022-11-12T10:10:16;101621.38;;;11.25;86.93
28935;BME280;16044;52.726;-2.108;2022-11-12T10:18:53;101630.91;;;11.47;86.52
28935;BME280;16044;52.726;-2.108;2022-11-12T10:21:33;101619.50;;;11.43;86.53
28935;BME280;16044;52.726;-2.108;2022-11-12T10:24:07;101621.78;;;11.48;86.46
28935;BME280;16044;52.726;-2.108;2022-11-12T10:26:37;101619.28;;;11.55;86.12
28935;BME280;16044;52.726;-2.108;2022-11-12T10:31:44;101614.63;;;11.65;86.17
28935;BME280;16044;52.726;-2.108;2022-11-12T10:34:14;101607.03;;;11.68;86.15
28935;BME280;16044;52.726;-2.108;2022-11-12T10:36:54;101613.31;;;11.69;85.71
28935;BME280;16044;52.726;-2.108;2022-11-12T10:39:31;101617.81;;;11.78;85.82
28935;BME280;16044;52.726;-2.108;2022-11-12T10:42:07;101613.75;;;11.82;85.68
28935;BME280;16044;52.726;-2.108;2022-11-12T10:44:39;101614.88;;;11.89;85.35
28935;BME280;16044;52.726;-2.108;2022-11-12T10:47:21;101612.84;;;11.92;84.89
28935;BME280;16044;52.726;-2.108;2022-11-12T10:50:02;101609.09;;;11.93;85.05
28935;BME280;16044;52.726;-2.108;2022-11-12T10:53:05;101588.66;;;12.06;84.73
28935;BME280;16044;52.726;-2.108;2022-11-12T10:55:39;101597.50;;;12.08;84.92
28935;BME280;16044;52.726;-2.108;2022-11-12T10:58:21;101594.16;;;12.15;84.42
28935;BME280;16044;52.726;-2.108;2022-11-12T11:00:52;101605.41;;;12.20;84.42
28935;BME280;16044;52.726;-2.108;2022-11-12T11:03:30;101598.47;;;12.25;83.71
28935;BME280;16044;52.726;-2.108;2022-11-12T11:06:02;101590.63;;;12.22;83.85
28935;BME280;16044;52.726;-2.108;2022-11-12T11:13:43;101576.38;;;12.28;84.02
28935;BME280;16044;52.726;-2.108;2022-11-12T11:16:16;101567.75;;;12.33;84.11
28935;BME280;16044;52.726;-2.108;2022-11-12T11:18:48;101560.47;;;12.42;83.89
28935;BME280;16044;52.726;-2.108;2022-11-12T11:24:59;101567.31;;;12.46;83.97
28935;BME280;16044;52.726;-2.108;2022-11-12T11:28:03;101567.34;;;12.54;83.76
28935;BME280;16044;52.726;-2.108;2022-11-12T11:30:52;101558.00;;;12.57;83.55
28935;BME280;16044;52.726;-2.108;2022-11-12T11:33:47;101548.31;;;12.54;83.32
28935;BME280;16044;52.726;-2.108;2022-11-12T11:36:36;101534.56;;;12.64;83.34
28935;BME280;16044;52.726;-2.108;2022-11-12T11:39:31;101539.84;;;12.65;82.82
28935;BME280;16044;52.726;-2.108;2022-11-12T11:44:58;101534.41;;;12.65;83.44
28935;BME280;16044;52.726;-2.108;2022-11-12T11:50:34;101519.81;;;12.66;83.00
28935;BME280;16044;52.726;-2.108;2022-11-12T11:53:20;101531.00;;;12.63;83.48
28935;BME280;16044;52.726;-2.108;2022-11-12T11:55:55;101534.41;;;12.65;83.31
28935;BME280;16044;52.726;-2.108;2022-11-12T12:01:33;101517.56;;;12.62;83.53
28935;BME280;16044;52.726;-2.108;2022-11-12T12:09:37;101499.03;;;12.57;84.10
28935;BME280;16044;52.726;-2.108;2022-11-12T12:21:14;101496.22;;;12.92;83.73
28935;BME280;16044;52.726;-2.108;2022-11-12T12:24:02;101499.78;;;12.92;83.49
28935;BME280;16044;52.726;-2.108;2022-11-12T12:27:20;101493.34;;;13.01;83.21
28935;BME280;16044;52.726;-2.108;2022-11-12T12:29:47;101494.69;;;13.05;82.68
28935;BME280;16044;52.726;-2.108;2022-11-12T12:32:58;101481.28;;;13.12;82.76
28935;BME280;16044;52.726;-2.108;2022-11-12T12:38:10;101473.97;;;13.13;82.35
28935;BME280;16044;52.726;-2.108;2022-11-12T12:40:50;101474.97;;;13.12;82.73
28935;BME280;16044;52.726;-2.108;2022-11-12T12:46:10;101455.91;;;13.03;82.46
28935;BME280;16044;52.726;-2.108;2022-11-12T12:48:44;101449.13;;;12.99;82.31
28935;BME280;16044;52.726;-2.108;2022-11-12T12:51:12;101451.31;;;12.96;82.68
28935;BME280;16044;52.726;-2.108;2022-11-12T12:53:39;101453.19;;;12.95;82.50
28935;BME280;16044;52.726;-2.108;2022-11-12T12:58:59;101445.53;;;12.91;82.98
28935;BME280;16044;52.726;-2.108;2022-11-12T13:01:31;101458.28;;;12.90;82.77
28935;BME280;16044;52.726;-2.108;2022-11-12T13:04:07;101447.06;;;12.85;83.38
28935;BME280;16044;52.726;-2.108;2022-11-12T13:40:30;101405.91;;;13.13;83.96
28935;BME280;16044;52.726;-2.108;2022-11-12T13:46:34;101401.47;;;13.12;84.45
28935;BME280;16044;52.726;-2.108;2022-11-12T13:53:57;101400.28;;;13.22;84.46
28935;BME280;16044;52.726;-2.108;2022-11-12T13:56:33;101396.88;;;13.20;84.84
28935;BME280;16044;52.726;-2.108;2022-11-12T13:59:12;101406.06;;;13.27;84.96
28935;BME280;16044;52.726;-2.108;2022-11-12T14:01:41;101397.91;;;13.27;84.96
28935;BME280;16044;52.726;-2.108;2022-11-12T14:04:17;101405.56;;;13.32;84.97
28935;BME280;16044;52.726;-2.108;2022-11-12T14:20:42;101393.97;;;13.47;85.45
28935;BME280;16044;52.726;-2.108;2022-11-12T14:23:14;101396.38;;;13.50;85.51
28935;BME280;16044;52.726;-2.108;2022-11-12T14:25:51;101389.56;;;13.54;85.54
28935;BME280;16044;52.726;-2.108;2022-11-12T14:28:26;101381.88;;;13.57;85.35
28935;BME280;16044;52.726;-2.108;2022-11-12T14:30:56;101381.50;;;13.60;85.26
28935;BME280;16044;52.726;-2.108;2022-11-12T14:33:26;101375.91;;;13.62;85.23
28935;BME280;16044;52.726;-2.108;2022-11-12T14:36:12;101369.44;;;13.63;85.29
28935;BME280;16044;52.726;-2.108;2022-11-12T14:38:45;101377.25;;;13.66;85.29
28935;BME280;16044;52.726;-2.108;2022-11-12T14:41:18;101373.50;;;13.67;85.27
28935;BME280;16044;52.726;-2.108;2022-11-12T14:43:53;101368.06;;;13.67;85.28
28935;BME280;16044;52.726;-2.108;2022-11-12T14:52:29;101366.16;;;13.68;85.16
28935;BME280;16044;52.726;-2.108;2022-11-12T14:55:09;101352.72;;;13.66;85.25
28935;BME280;16044;52.726;-2.108;2022-11-12T14:57:39;101355.09;;;13.69;85.22
28935;BME280;16044;52.726;-2.108;2022-11-12T15:00:40;101355.63;;;13.64;85.49
28935;BME280;16044;52.726;-2.108;2022-11-12T15:03:14;101349.31;;;13.64;85.23